»·PEaware :: N7499C KPDX-KOLM

N7499C :: KPDX-KOLM

FLIGHT INFORMATION

Flight Status: Arrived
Operator: Privately registered:
United States
More flights under this callsign
Pilot: Nick W. (27601)
Aircraft: CESSNA 172 SKYHAWK
(C172)
More flights by this aircraft type
Origin: KPDX Portland Intl
United States
Destination: KOLM Olympia
United States
More flights between these airports :: More routes between these airports
Route: +BTG V287 OLM
File this flight plan on PilotEdge
Remarks: RNAV17 at KOLM
Altitude:
(Current/Filed)
4,000ft
Speed:
(Current/Filed)
110kts
Departed: 14-Jan-20 01:42 PM
Arrived: 14-Jan-20 02:40 PM
Distance/Time
Traveled:
84nm/0:57
Distance/Time
To Go:
Arrived

Flight Plot

Page will automatically refresh every two minutes.

Flight plan parsing failed; only flown route is shown


Map Options




Map Legend


Flown Route
Filed Route
Departure Airport
Arrival Airport
Navaid (VOR, NDB)
Fix

Horizontal Profiles

Position Reports

Time Latitude Longitude Heading Altitude Ground
Speed
14-Jan-20 13:16 45.588148 -122.585291 297 28ft 0kts
14-Jan-20 13:17 45.588148 -122.585291 297 28ft 0kts
14-Jan-20 13:18 45.588148 -122.585291 297 28ft 0kts
14-Jan-20 13:19 45.588148 -122.585291 297 28ft 0kts
14-Jan-20 13:20 45.588148 -122.585291 297 28ft 0kts
14-Jan-20 13:21 45.588148 -122.585291 297 28ft 0kts
14-Jan-20 13:22 45.588148 -122.585291 297 28ft 0kts
14-Jan-20 13:23 45.588148 -122.585291 297 28ft 0kts
14-Jan-20 13:24 45.588148 -122.585291 297 28ft 0kts
14-Jan-20 13:25 45.588148 -122.585291 297 28ft 0kts
14-Jan-20 13:26 45.588148 -122.585291 297 28ft 0kts
14-Jan-20 13:27 45.588148 -122.585291 297 28ft 0kts
14-Jan-20 13:28 45.588148 -122.585291 297 28ft 0kts
14-Jan-20 13:29 45.588148 -122.585291 297 28ft 0kts
14-Jan-20 13:30 45.588148 -122.585291 297 28ft 0kts
14-Jan-20 13:31 45.588148 -122.585291 297 28ft 0kts
14-Jan-20 13:34 45.588148 -122.585291 297 28ft 0kts
14-Jan-20 13:34 45.588148 -122.585291 297 28ft 0kts
14-Jan-20 13:36 45.588150 -122.585295 307 28ft 0kts
14-Jan-20 13:37 45.588116 -122.582674 40 28ft 15kts
14-Jan-20 13:37 45.586699 -122.578088 116 28ft 25kts
14-Jan-20 13:39 45.583530 -122.569088 24 32ft 0kts
14-Jan-20 13:39 45.583531 -122.569088 24 32ft 0kts
14-Jan-20 13:40 45.583616 -122.569023 26 32ft 4kts
14-Jan-20 13:42 45.588028 -122.577650 305 407ft 56kts
14-Jan-20 13:42 45.595009 -122.592070 297 1242ft 59kts
14-Jan-20 13:43 45.602564 -122.610469 304 2184ft 66kts
14-Jan-20 13:44 45.619694 -122.610055 351 3189ft 70kts
14-Jan-20 13:45 45.636330 -122.608453 356 4040ft 73kts
14-Jan-20 13:46 45.653892 -122.606100 357 4853ft 77kts
14-Jan-20 13:47 45.671802 -122.603125 349 5638ft 75kts
14-Jan-20 13:48 45.701100 -122.598132 4 6016ft 109kts
14-Jan-20 13:49 45.734691 -122.590684 347 6072ft 107kts
14-Jan-20 13:50 45.772254 -122.593947 347 5938ft 107kts
14-Jan-20 13:51 45.806614 -122.600649 341 5906ft 97kts
14-Jan-20 13:52 45.832638 -122.604555 348 5952ft 101kts
14-Jan-20 13:53 45.858806 -122.609157 344 6079ft 100kts
14-Jan-20 13:54 45.882982 -122.616472 333 6148ft 102kts
14-Jan-20 13:55 45.910589 -122.624595 345 6102ft 110kts
14-Jan-20 13:56 45.944465 -122.629223 343 5939ft 110kts
14-Jan-20 13:57 45.971098 -122.635580 341 5881ft 105kts
14-Jan-20 13:58 45.998543 -122.641299 337 5963ft 101kts
14-Jan-20 13:59 46.021753 -122.656785 333 6048ft 100kts
14-Jan-20 14:00 46.048819 -122.666619 338 6123ft 106kts
14-Jan-20 14:01 46.077222 -122.678721 335 6034ft 110kts
14-Jan-20 14:02 46.104892 -122.685796 334 5978ft 107kts
14-Jan-20 14:03 46.131540 -122.693256 350 5910ft 113kts
14-Jan-20 14:04 46.159544 -122.697069 338 5905ft 107kts
14-Jan-20 14:05 46.186225 -122.705051 327 5917ft 104kts
14-Jan-20 14:06 46.212879 -122.713229 341 5948ft 107kts
14-Jan-20 14:07 46.240771 -122.721261 337 5973ft 106kts
14-Jan-20 14:08 46.265062 -122.727653 339 6012ft 104kts
14-Jan-20 14:09 46.289456 -122.733806 344 6025ft 106kts
14-Jan-20 14:10 46.314340 -122.737989 346 6035ft 107kts
14-Jan-20 14:11 46.338997 -122.743861 336 6051ft 103kts
14-Jan-20 14:12 46.363262 -122.751448 332 6055ft 103kts
14-Jan-20 14:13 46.387231 -122.761609 341 6060ft 106kts
14-Jan-20 14:14 46.411575 -122.771138 337 6082ft 103kts
14-Jan-20 14:15 46.436430 -122.782383 331 6100ft 101kts
14-Jan-20 14:16 46.460977 -122.797916 324 6116ft 99kts
14-Jan-20 14:17 46.490295 -122.803876 353 6129ft 104kts
14-Jan-20 14:18 46.521268 -122.805627 344 6143ft 102kts
14-Jan-20 14:19 46.553451 -122.812638 341 6063ft 103kts
14-Jan-20 14:20 46.586961 -122.817817 344 6004ft 104kts
14-Jan-20 14:21 46.620770 -122.823612 337 5945ft 103kts
14-Jan-20 14:22 46.652590 -122.838525 346 5893ft 103kts
14-Jan-20 14:23 46.685656 -122.842893 356 5847ft 105kts
14-Jan-20 14:24 46.717487 -122.848519 338 5825ft 102kts
14-Jan-20 14:25 46.747024 -122.860027 338 5822ft 100kts
14-Jan-20 14:26 46.774579 -122.867508 347 5875ft 104kts
14-Jan-20 14:27 46.800388 -122.866228 358 5593ft 113kts
14-Jan-20 14:28 46.827416 -122.861795 354 5130ft 114kts
14-Jan-20 14:29 46.859985 -122.854489 0 4585ft 121kts
14-Jan-20 14:30 46.891908 -122.848815 4 4135ft 124kts
14-Jan-20 14:31 46.924255 -122.844588 358 3554ft 122kts
14-Jan-20 14:32 46.955667 -122.845098 357 2984ft 120kts
14-Jan-20 14:33 46.985764 -122.848035 353 2417ft 108kts
14-Jan-20 14:34 47.011120 -122.852181 345 1663ft 96kts
14-Jan-20 14:35 47.019833 -122.874461 242 1119ft 77kts
14-Jan-20 14:36 47.008780 -122.894965 187 841ft 79kts
14-Jan-20 14:37 46.991935 -122.897681 190 501ft 56kts
14-Jan-20 14:38 46.977544 -122.901972 193 238ft 52kts
14-Jan-20 14:39 46.970537 -122.903122 111 201ft 15kts
14-Jan-20 14:40 46.971406 -122.898116 45 201ft 10kts
14-Jan-20 14:41 46.971853 -122.894836 147 204ft 3kts

Navigation Log

Ident Type
Flight plan parsing failed, navigation log unavailable